Pagina principale
METAR-TAF:

METAR-TAF

Aeroporti :

Aeroporto di Viterbo

Viterbo, Italia

latitudine: 42-26N, longitudine: 012-03E, altezza: 300 m

Osservazione

Il bollettino è stato emesso 6 ore e 58 minuti fa, alle 17:55 UTC
Vento 8 kt da sud/sud-ovest
Temperature 23°C
Umidità 50%
Pressione 1016 hPa
Visibilità 10 km o più
Poco nuvoloso ad un'altezza di 2500 ft

METAR: LIRV 271755Z 21008KT 9999 FEW025 23/12 Q1016 RMK SCT SCT200 MON E SE LIB NC VIS MIN 9999 BLU

Ora: 02:53 (00:53 UTC)

Previsione

Il bollettino è stato emesso 10 ore e 53 minuti fa, alle 14:00 UTC
Previsione valida dal 27 alle 15 UTC al 27 alle 24 UTC
Vento 10 kt da ovest
Visibilità 10 km o più
Poco nuvoloso ad un'altezza di 3000 ft

TAF: LIRV 271400Z 2715/2724 26010KT 9999 FEW030

Osservazioni e previsioni meteorologiche di più di 4000 aeroporti (messaggi METAR e TAF).

Le stazioni disponibili sono rappresentate dai dischi gialli e rossi sulla carta.

Puntare il mouse per vedere il nome della stazione.

Clicca sopra per visualizzare le osservazioni e previsioni meteorologiche.

Per cambiare la mappa : fare clic sui pulsanti verdi con una croce nera per ingrandire, il pulsante verde con un trattino per diminuire, o sulla freccia verde per le mappe adiacenti.


METAR-TAF: